sensor_id;sensor_type;location;lat;lon;timestamp;pressure;altitude;pressure_sealevel;temperature;humidity
13033;BME280;6583;42.632;23.298;2022-11-20T00:00:39;91753.44;;;16.85;72.20
13033;BME280;6583;42.632;23.298;2022-11-20T00:03:06;91777.78;;;16.80;72.38
13033;BME280;6583;42.632;23.298;2022-11-20T00:05:32;91781.63;;;16.79;73.32
13033;BME280;6583;42.632;23.298;2022-11-20T00:07:59;91784.72;;;16.81;72.97
13033;BME280;6583;42.632;23.298;2022-11-20T00:10:26;91800.72;;;16.77;74.27
13033;BME280;6583;42.632;23.298;2022-11-20T00:12:54;91793.00;;;16.76;73.52
13033;BME280;6583;42.632;23.298;2022-11-20T00:15:20;91798.97;;;16.69;74.11
13033;BME280;6583;42.632;23.298;2022-11-20T00:17:47;91782.56;;;16.70;73.52
13033;BME280;6583;42.632;23.298;2022-11-20T00:20:14;91774.00;;;16.81;73.13
13033;BME280;6583;42.632;23.298;2022-11-20T00:22:41;91785.41;;;16.78;73.81
13033;BME280;6583;42.632;23.298;2022-11-20T00:25:08;91745.84;;;16.87;73.30
13033;BME280;6583;42.632;23.298;2022-11-20T00:27:35;91744.19;;;16.82;73.35
13033;BME280;6583;42.632;23.298;2022-11-20T00:30:03;91738.75;;;16.79;72.92
13033;BME280;6583;42.632;23.298;2022-11-20T00:32:30;91716.44;;;16.74;73.53
13033;BME280;6583;42.632;23.298;2022-11-20T00:34:57;91740.72;;;16.82;72.91
13033;BME280;6583;42.632;23.298;2022-11-20T00:37:24;91743.38;;;16.82;72.84
13033;BME280;6583;42.632;23.298;2022-11-20T00:39:50;91778.00;;;16.87;73.35
13033;BME280;6583;42.632;23.298;2022-11-20T00:42:17;91746.56;;;16.84;72.15
13033;BME280;6583;42.632;23.298;2022-11-20T00:44:44;91778.13;;;16.78;72.18
13033;BME280;6583;42.632;23.298;2022-11-20T00:47:12;91768.94;;;16.91;71.03
13033;BME280;6583;42.632;23.298;2022-11-20T00:49:38;91788.19;;;16.97;70.33
13033;BME280;6583;42.632;23.298;2022-11-20T00:52:05;91788.91;;;16.94;70.51
13033;BME280;6583;42.632;23.298;2022-11-20T00:54:32;91785.59;;;17.01;70.71
13033;BME280;6583;42.632;23.298;2022-11-20T00:56:58;91755.69;;;16.99;69.75
13033;BME280;6583;42.632;23.298;2022-11-20T00:59:25;91755.34;;;17.00;71.76
13033;BME280;6583;42.632;23.298;2022-11-20T01:01:51;91764.88;;;16.98;70.16
13033;BME280;6583;42.632;23.298;2022-11-20T01:04:19;91750.09;;;16.88;70.69
13033;BME280;6583;42.632;23.298;2022-11-20T01:06:46;91762.28;;;17.01;70.01
13033;BME280;6583;42.632;23.298;2022-11-20T01:09:13;91755.19;;;16.93;70.59
13033;BME280;6583;42.632;23.298;2022-11-20T01:11:42;91743.78;;;16.96;70.12
13033;BME280;6583;42.632;23.298;2022-11-20T01:14:11;91748.44;;;16.99;69.62
13033;BME280;6583;42.632;23.298;2022-11-20T01:16:41;91731.06;;;16.93;70.53
13033;BME280;6583;42.632;23.298;2022-11-20T01:19:10;91734.59;;;16.97;70.66
13033;BME280;6583;42.632;23.298;2022-11-20T01:21:40;91723.19;;;17.00;69.27
13033;BME280;6583;42.632;23.298;2022-11-20T01:24:10;91710.22;;;17.02;68.68
13033;BME280;6583;42.632;23.298;2022-11-20T01:26:39;91740.66;;;16.94;70.43
13033;BME280;6583;42.632;23.298;2022-11-20T01:29:08;91761.41;;;16.97;69.78
13033;BME280;6583;42.632;23.298;2022-11-20T01:31:36;91709.53;;;17.05;70.00
13033;BME280;6583;42.632;23.298;2022-11-20T01:34:04;91717.41;;;16.98;70.05
13033;BME280;6583;42.632;23.298;2022-11-20T01:36:33;91709.19;;;16.91;70.14
13033;BME280;6583;42.632;23.298;2022-11-20T01:39:04;91717.25;;;16.91;69.43
13033;BME280;6583;42.632;23.298;2022-11-20T01:41:33;91725.28;;;16.91;69.64
13033;BME280;6583;42.632;23.298;2022-11-20T01:44:19;91688.47;;;16.88;69.31
13033;BME280;6583;42.632;23.298;2022-11-20T01:46:52;91686.28;;;16.94;69.33
13033;BME280;6583;42.632;23.298;2022-11-20T01:49:25;91709.19;;;16.91;68.49
13033;BME280;6583;42.632;23.298;2022-11-20T01:51:55;91679.81;;;16.95;68.49
13033;BME280;6583;42.632;23.298;2022-11-20T01:54:29;91706.78;;;16.86;69.45
13033;BME280;6583;42.632;23.298;2022-11-20T01:56:58;91737.59;;;16.80;69.98
13033;BME280;6583;42.632;23.298;2022-11-20T01:59:26;91703.84;;;16.91;68.47
13033;BME280;6583;42.632;23.298;2022-11-20T02:01:54;91711.97;;;16.95;68.80
13033;BME280;6583;42.632;23.298;2022-11-20T02:04:22;91718.50;;;16.81;69.13
13033;BME280;6583;42.632;23.298;2022-11-20T02:06:51;91729.88;;;16.90;67.94
13033;BME280;6583;42.632;23.298;2022-11-20T02:09:20;91735.91;;;16.87;67.89
13033;BME280;6583;42.632;23.298;2022-11-20T02:11:48;91727.28;;;16.94;67.24
13033;BME280;6583;42.632;23.298;2022-11-20T02:14:15;91743.34;;;16.94;68.65
13033;BME280;6583;42.632;23.298;2022-11-20T02:16:45;91740.94;;;16.89;68.85
13033;BME280;6583;42.632;23.298;2022-11-20T02:19:19;91753.00;;;16.83;68.52
13033;BME280;6583;42.632;23.298;2022-11-20T02:21:54;91742.19;;;16.79;68.99
13033;BME280;6583;42.632;23.298;2022-11-20T02:24:24;91740.28;;;16.80;68.80
13033;BME280;6583;42.632;23.298;2022-11-20T02:26:52;91750.44;;;16.86;68.51
13033;BME280;6583;42.632;23.298;2022-11-20T02:29:24;91738.81;;;16.82;68.81
13033;BME280;6583;42.632;23.298;2022-11-20T02:31:53;91741.19;;;16.84;70.54
13033;BME280;6583;42.632;23.298;2022-11-20T02:34:21;91745.31;;;16.81;69.61
13033;BME280;6583;42.632;23.298;2022-11-20T02:36:49;91744.97;;;16.67;69.89
13033;BME280;6583;42.632;23.298;2022-11-20T02:39:19;91736.31;;;16.73;70.10
13033;BME280;6583;42.632;23.298;2022-11-20T02:41:48;91758.88;;;16.72;69.54
13033;BME280;6583;42.632;23.298;2022-11-20T02:44:14;91730.91;;;16.86;70.57
13033;BME280;6583;42.632;23.298;2022-11-20T02:46:41;91762.84;;;16.79;69.79
13033;BME280;6583;42.632;23.298;2022-11-20T02:49:08;91767.72;;;16.89;70.22
13033;BME280;6583;42.632;23.298;2022-11-20T02:51:34;91761.72;;;16.80;71.21
13033;BME280;6583;42.632;23.298;2022-11-20T02:54:01;91764.06;;;16.65;71.44
13033;BME280;6583;42.632;23.298;2022-11-20T02:56:28;91771.41;;;16.68;72.58
13033;BME280;6583;42.632;23.298;2022-11-20T02:58:56;91767.41;;;16.62;72.26
13033;BME280;6583;42.632;23.298;2022-11-20T03:01:23;91770.09;;;16.62;73.03
13033;BME280;6583;42.632;23.298;2022-11-20T03:03:50;91788.16;;;16.65;72.48
13033;BME280;6583;42.632;23.298;2022-11-20T03:06:19;91798.78;;;16.62;72.82
13033;BME280;6583;42.632;23.298;2022-11-20T03:08:45;91769.66;;;16.60;72.99
13033;BME280;6583;42.632;23.298;2022-11-20T03:11:12;91768.81;;;16.56;73.77
13033;BME280;6583;42.632;23.298;2022-11-20T03:13:39;91779.63;;;16.60;73.13
13033;BME280;6583;42.632;23.298;2022-11-20T03:16:09;91748.94;;;16.57;72.69
13033;BME280;6583;42.632;23.298;2022-11-20T03:18:37;91789.78;;;16.54;73.24
13033;BME280;6583;42.632;23.298;2022-11-20T03:21:04;91822.38;;;16.56;72.63
13033;BME280;6583;42.632;23.298;2022-11-20T03:23:31;91793.09;;;16.63;72.56
13033;BME280;6583;42.632;23.298;2022-11-20T03:26:09;91793.44;;;16.62;72.45
13033;BME280;6583;42.632;23.298;2022-11-20T03:28:35;91783.41;;;16.59;72.72
13033;BME280;6583;42.632;23.298;2022-11-20T03:31:06;91798.28;;;16.56;73.23
13033;BME280;6583;42.632;23.298;2022-11-20T03:33:34;91794.38;;;16.53;73.95
13033;BME280;6583;42.632;23.298;2022-11-20T03:36:02;91810.69;;;16.48;73.71
13033;BME280;6583;42.632;23.298;2022-11-20T03:38:29;91773.19;;;16.48;73.75
13033;BME280;6583;42.632;23.298;2022-11-20T03:40:59;91814.19;;;16.36;74.26
13033;BME280;6583;42.632;23.298;2022-11-20T03:43:27;91811.72;;;16.44;73.33
13033;BME280;6583;42.632;23.298;2022-11-20T03:45:54;91818.63;;;16.45;73.01
13033;BME280;6583;42.632;23.298;2022-11-20T03:48:20;91815.69;;;16.50;73.18
13033;BME280;6583;42.632;23.298;2022-11-20T03:50:48;91863.47;;;16.48;73.35
13033;BME280;6583;42.632;23.298;2022-11-20T03:53:15;91783.81;;;16.45;73.52
13033;BME280;6583;42.632;23.298;2022-11-20T03:55:42;91813.53;;;16.40;74.46
13033;BME280;6583;42.632;23.298;2022-11-20T03:58:09;91817.56;;;16.33;74.13
13033;BME280;6583;42.632;23.298;2022-11-20T04:00:36;91824.47;;;16.34;73.68
13033;BME280;6583;42.632;23.298;2022-11-20T04:03:03;91817.13;;;16.31;73.41
13033;BME280;6583;42.632;23.298;2022-11-20T04:05:29;91823.50;;;16.27;75.33
13033;BME280;6583;42.632;23.298;2022-11-20T04:07:57;91789.47;;;16.27;74.34
13033;BME280;6583;42.632;23.298;2022-11-20T04:10:24;91808.56;;;16.26;74.51
13033;BME280;6583;42.632;23.298;2022-11-20T04:12:51;91812.47;;;16.28;73.74
13033;BME280;6583;42.632;23.298;2022-11-20T04:15:17;91805.63;;;16.31;74.07
13033;BME280;6583;42.632;23.298;2022-11-20T04:17:44;91807.97;;;16.32;73.71
13033;BME280;6583;42.632;23.298;2022-11-20T04:20:11;91814.69;;;16.26;73.52
13033;BME280;6583;42.632;23.298;2022-11-20T04:22:38;91814.69;;;16.26;73.95
13033;BME280;6583;42.632;23.298;2022-11-20T04:25:06;91817.13;;;16.31;74.56
13033;BME280;6583;42.632;23.298;2022-11-20T04:27:33;91810.13;;;16.27;74.10
13033;BME280;6583;42.632;23.298;2022-11-20T04:30:00;91837.00;;;16.30;74.26
13033;BME280;6583;42.632;23.298;2022-11-20T04:32:27;91835.56;;;16.21;74.84
13033;BME280;6583;42.632;23.298;2022-11-20T04:34:53;91852.38;;;16.33;75.67
13033;BME280;6583;42.632;23.298;2022-11-20T04:37:20;91834.38;;;16.18;77.24
13033;BME280;6583;42.632;23.298;2022-11-20T04:39:47;91805.25;;;16.16;75.75
13033;BME280;6583;42.632;23.298;2022-11-20T04:42:15;91828.47;;;16.12;76.92
13033;BME280;6583;42.632;23.298;2022-11-20T04:44:57;91835.72;;;16.12;77.16
13033;BME280;6583;42.632;23.298;2022-11-20T04:47:23;91831.13;;;16.12;76.34
13033;BME280;6583;42.632;23.298;2022-11-20T04:49:50;91820.53;;;16.16;76.00
13033;BME280;6583;42.632;23.298;2022-11-20T04:52:17;91822.34;;;16.12;76.95
13033;BME280;6583;42.632;23.298;2022-11-20T04:54:44;91829.50;;;16.08;76.87
13033;BME280;6583;42.632;23.298;2022-11-20T04:57:14;91795.91;;;16.10;76.71
13033;BME280;6583;42.632;23.298;2022-11-20T04:59:41;91801.16;;;16.07;76.37
13033;BME280;6583;42.632;23.298;2022-11-20T05:02:08;91798.06;;;16.05;76.35
13033;BME280;6583;42.632;23.298;2022-11-20T05:04:35;91812.31;;;16.09;75.52
13033;BME280;6583;42.632;23.298;2022-11-20T05:07:02;91804.75;;;16.11;76.91
13033;BME280;6583;42.632;23.298;2022-11-20T05:09:29;91808.94;;;16.12;78.18
13033;BME280;6583;42.632;23.298;2022-11-20T05:11:56;91809.66;;;15.96;78.34
13033;BME280;6583;42.632;23.298;2022-11-20T05:14:24;91812.34;;;15.96;78.83
13033;BME280;6583;42.632;23.298;2022-11-20T05:16:51;91795.44;;;15.92;79.32
13033;BME280;6583;42.632;23.298;2022-11-20T05:19:17;91790.75;;;15.89;79.65
13033;BME280;6583;42.632;23.298;2022-11-20T05:21:44;91800.13;;;15.83;80.44
13033;BME280;6583;42.632;23.298;2022-11-20T05:24:11;91819.53;;;15.80;81.17
13033;BME280;6583;42.632;23.298;2022-11-20T05:26:37;91786.31;;;15.81;81.05
13033;BME280;6583;42.632;23.298;2022-11-20T05:29:04;91781.66;;;15.78;80.19
13033;BME280;6583;42.632;23.298;2022-11-20T05:31:32;91785.19;;;15.82;80.40
13033;BME280;6583;42.632;23.298;2022-11-20T05:33:59;91774.41;;;15.78;81.02
13033;BME280;6583;42.632;23.298;2022-11-20T05:36:25;91783.63;;;15.81;80.62
13033;BME280;6583;42.632;23.298;2022-11-20T05:38:52;91767.34;;;15.74;80.43
13033;BME280;6583;42.632;23.298;2022-11-20T05:41:20;91818.75;;;15.67;81.31
13033;BME280;6583;42.632;23.298;2022-11-20T05:43:48;91783.97;;;15.67;80.09
13033;BME280;6583;42.632;23.298;2022-11-20T05:46:17;91790.44;;;15.78;79.53
13033;BME280;6583;42.632;23.298;2022-11-20T05:48:45;91788.97;;;15.81;79.31
13033;BME280;6583;42.632;23.298;2022-11-20T05:51:14;91766.47;;;15.82;77.46
13033;BME280;6583;42.632;23.298;2022-11-20T05:53:41;91768.72;;;15.80;78.03
13033;BME280;6583;42.632;23.298;2022-11-20T05:56:11;91796.78;;;15.86;77.91
13033;BME280;6583;42.632;23.298;2022-11-20T05:58:38;91784.75;;;15.80;79.35
13033;BME280;6583;42.632;23.298;2022-11-20T06:01:07;91795.03;;;15.78;79.32
13033;BME280;6583;42.632;23.298;2022-11-20T06:03:34;91795.13;;;15.82;79.53
13033;BME280;6583;42.632;23.298;2022-11-20T06:06:04;91822.41;;;15.87;78.66
13033;BME280;6583;42.632;23.298;2022-11-20T06:08:31;91844.94;;;15.86;78.57
13033;BME280;6583;42.632;23.298;2022-11-20T06:10:58;91797.66;;;15.90;78.32
13033;BME280;6583;42.632;23.298;2022-11-20T06:13:25;91787.53;;;15.84;78.01
13033;BME280;6583;42.632;23.298;2022-11-20T06:15:52;91810.47;;;15.85;78.64
13033;BME280;6583;42.632;23.298;2022-11-20T06:18:19;91811.72;;;15.87;77.85
13033;BME280;6583;42.632;23.298;2022-11-20T06:20:46;91791.84;;;15.88;77.50
13033;BME280;6583;42.632;23.298;2022-11-20T06:23:14;91815.47;;;15.98;76.17
13033;BME280;6583;42.632;23.298;2022-11-20T06:25:42;91800.28;;;16.03;76.61
13033;BME280;6583;42.632;23.298;2022-11-20T06:28:08;91807.66;;;16.06;75.60
13033;BME280;6583;42.632;23.298;2022-11-20T06:30:35;91828.03;;;16.10;77.06
13033;BME280;6583;42.632;23.298;2022-11-20T06:33:02;91811.53;;;16.08;77.52
13033;BME280;6583;42.632;23.298;2022-11-20T06:35:29;91810.44;;;16.09;76.06
13033;BME280;6583;42.632;23.298;2022-11-20T06:37:55;91815.63;;;16.18;74.97
13033;BME280;6583;42.632;23.298;2022-11-20T06:40:24;91801.66;;;16.25;74.79
13033;BME280;6583;42.632;23.298;2022-11-20T06:42:50;91822.47;;;16.31;73.05
13033;BME280;6583;42.632;23.298;2022-11-20T06:45:17;91825.38;;;16.39;72.23
13033;BME280;6583;42.632;23.298;2022-11-20T06:47:44;91837.63;;;16.40;71.66
13033;BME280;6583;42.632;23.298;2022-11-20T06:50:10;91821.06;;;16.50;71.79
13033;BME280;6583;42.632;23.298;2022-11-20T06:52:37;91860.53;;;16.53;71.90
13033;BME280;6583;42.632;23.298;2022-11-20T06:55:04;91840.41;;;16.59;71.17
13033;BME280;6583;42.632;23.298;2022-11-20T06:57:32;91833.03;;;16.68;72.32
13033;BME280;6583;42.632;23.298;2022-11-20T06:59:59;91828.63;;;16.76;72.47
13033;BME280;6583;42.632;23.298;2022-11-20T07:02:26;91819.38;;;16.73;73.02
13033;BME280;6583;42.632;23.298;2022-11-20T07:04:52;91842.19;;;16.83;72.10
13033;BME280;6583;42.632;23.298;2022-11-20T07:07:19;91845.19;;;16.82;72.95
13033;BME280;6583;42.632;23.298;2022-11-20T07:09:45;91847.19;;;16.69;73.11
13033;BME280;6583;42.632;23.298;2022-11-20T07:12:12;91834.31;;;16.74;72.44
13033;BME280;6583;42.632;23.298;2022-11-20T07:14:40;91852.63;;;16.72;75.92
13033;BME280;6583;42.632;23.298;2022-11-20T07:17:07;91835.44;;;16.58;72.94
13033;BME280;6583;42.632;23.298;2022-11-20T07:19:33;91841.13;;;16.56;72.19
13033;BME280;6583;42.632;23.298;2022-11-20T07:22:00;91842.72;;;16.45;72.24
13033;BME280;6583;42.632;23.298;2022-11-20T07:24:27;91844.97;;;16.43;72.95
13033;BME280;6583;42.632;23.298;2022-11-20T07:26:53;91839.28;;;16.44;73.10
13033;BME280;6583;42.632;23.298;2022-11-20T07:29:20;91842.06;;;16.48;73.54
13033;BME280;6583;42.632;23.298;2022-11-20T07:31:48;91855.69;;;16.43;75.21
13033;BME280;6583;42.632;23.298;2022-11-20T07:34:14;91834.06;;;16.35;73.60
13033;BME280;6583;42.632;23.298;2022-11-20T07:36:41;91823.03;;;16.37;74.15
13033;BME280;6583;42.632;23.298;2022-11-20T07:39:08;91844.09;;;16.39;75.70
13033;BME280;6583;42.632;23.298;2022-11-20T07:41:34;91831.25;;;16.44;75.52
13033;BME280;6583;42.632;23.298;2022-11-20T07:44:01;91814.19;;;16.36;76.01
13033;BME280;6583;42.632;23.298;2022-11-20T07:46:28;91819.47;;;16.33;74.94
13033;BME280;6583;42.632;23.298;2022-11-20T07:48:56;91827.81;;;16.31;75.17
13033;BME280;6583;42.632;23.298;2022-11-20T07:51:23;91825.59;;;16.33;74.85
13033;BME280;6583;42.632;23.298;2022-11-20T07:53:51;91829.31;;;16.29;76.75
13033;BME280;6583;42.632;23.298;2022-11-20T07:56:17;91827.69;;;16.12;79.51
13033;BME280;6583;42.632;23.298;2022-11-20T07:58:44;91829.72;;;16.03;80.41
13033;BME280;6583;42.632;23.298;2022-11-20T08:01:11;91838.44;;;16.00;83.12
13033;BME280;6583;42.632;23.298;2022-11-20T08:03:37;91821.50;;;15.95;81.13
13033;BME280;6583;42.632;23.298;2022-11-20T08:06:06;91808.81;;;15.92;84.71
13033;BME280;6583;42.632;23.298;2022-11-20T08:08:33;91779.63;;;15.87;89.30
13033;BME280;6583;42.632;23.298;2022-11-20T08:10:59;91819.63;;;15.84;85.69
13033;BME280;6583;42.632;23.298;2022-11-20T08:13:40;91828.53;;;15.88;86.52
13033;BME280;6583;42.632;23.298;2022-11-20T08:16:24;91836.13;;;15.86;81.39
13033;BME280;6583;42.632;23.298;2022-11-20T08:18:50;91832.66;;;15.97;80.84
13033;BME280;6583;42.632;23.298;2022-11-20T08:21:18;91859.16;;;16.03;77.33
13033;BME280;6583;42.632;23.298;2022-11-20T08:23:45;91867.84;;;16.12;80.23
13033;BME280;6583;42.632;23.298;2022-11-20T08:26:12;91874.84;;;16.16;78.87
13033;BME280;6583;42.632;23.298;2022-11-20T08:28:38;91872.47;;;16.27;80.63
13033;BME280;6583;42.632;23.298;2022-11-20T08:31:05;91889.06;;;16.33;77.88
13033;BME280;6583;42.632;23.298;2022-11-20T08:33:32;91879.59;;;16.35;79.40
13033;BME280;6583;42.632;23.298;2022-11-20T08:35:59;91870.19;;;16.42;77.79
13033;BME280;6583;42.632;23.298;2022-11-20T08:38:28;91869.16;;;16.46;77.89
13033;BME280;6583;42.632;23.298;2022-11-20T08:40:56;91875.38;;;16.50;78.31
13033;BME280;6583;42.632;23.298;2022-11-20T08:43:40;91886.09;;;16.50;82.84
13033;BME280;6583;42.632;23.298;2022-11-20T08:46:07;91894.03;;;16.47;87.69
13033;BME280;6583;42.632;23.298;2022-11-20T08:48:34;91891.59;;;16.42;87.76
13033;BME280;6583;42.632;23.298;2022-11-20T08:51:00;91888.88;;;16.26;91.41
13033;BME280;6583;42.632;23.298;2022-11-20T08:53:28;91895.34;;;16.25;97.07
13033;BME280;6583;42.632;23.298;2022-11-20T08:55:56;91894.25;;;16.13;98.03
13033;BME280;6583;42.632;23.298;2022-11-20T08:58:23;91878.34;;;16.05;96.99
13033;BME280;6583;42.632;23.298;2022-11-20T09:00:50;91865.88;;;15.96;99.20
13033;BME280;6583;42.632;23.298;2022-11-20T09:03:16;91873.34;;;15.91;100.00
13033;BME280;6583;42.632;23.298;2022-11-20T09:05:43;91903.91;;;15.77;100.00
13033;BME280;6583;42.632;23.298;2022-11-20T09:08:09;91881.50;;;15.70;100.00
13033;BME280;6583;42.632;23.298;2022-11-20T09:10:38;91904.44;;;15.21;100.00
13033;BME280;6583;42.632;23.298;2022-11-20T09:13:05;91914.31;;;15.09;98.36
13033;BME280;6583;42.632;23.298;2022-11-20T09:15:32;91885.09;;;14.79;97.07
13033;BME280;6583;42.632;23.298;2022-11-20T09:18:01;91902.69;;;14.46;100.00
13033;BME280;6583;42.632;23.298;2022-11-20T09:20:29;91902.03;;;14.28;100.00
13033;BME280;6583;42.632;23.298;2022-11-20T09:22:56;91912.63;;;14.37;100.00
13033;BME280;6583;42.632;23.298;2022-11-20T09:25:23;91882.69;;;14.32;100.00
13033;BME280;6583;42.632;23.298;2022-11-20T09:27:56;91880.09;;;14.23;100.00
13033;BME280;6583;42.632;23.298;2022-11-20T09:30:23;91889.81;;;14.27;100.00
13033;BME280;6583;42.632;23.298;2022-11-20T09:32:49;91883.47;;;14.32;100.00
13033;BME280;6583;42.632;23.298;2022-11-20T09:35:16;91874.13;;;14.26;100.00
13033;BME280;6583;42.632;23.298;2022-11-20T09:37:44;91851.22;;;14.04;100.00
13033;BME280;6583;42.632;23.298;2022-11-20T09:40:18;91865.22;;;14.01;100.00
13033;BME280;6583;42.632;23.298;2022-11-20T09:42:52;91859.03;;;14.09;100.00
13033;BME280;6583;42.632;23.298;2022-11-20T09:45:34;91862.53;;;14.22;100.00
13033;BME280;6583;42.632;23.298;2022-11-20T09:48:14;91845.00;;;14.33;100.00
13033;BME280;6583;42.632;23.298;2022-11-20T09:50:47;91842.31;;;14.21;100.00
13033;BME280;6583;42.632;23.298;2022-11-20T09:53:25;91848.44;;;14.34;100.00
13033;BME280;6583;42.632;23.298;2022-11-20T09:55:55;91838.94;;;14.45;100.00
13033;BME280;6583;42.632;23.298;2022-11-20T09:58:28;91844.41;;;14.48;100.00
13033;BME280;6583;42.632;23.298;2022-11-20T10:01:09;91844.91;;;14.63;100.00
13033;BME280;6583;42.632;23.298;2022-11-20T10:03:41;91837.34;;;14.77;100.00
13033;BME280;6583;42.632;23.298;2022-11-20T10:06:13;91830.47;;;14.76;100.00
13033;BME280;6583;42.632;23.298;2022-11-20T10:08:44;91833.38;;;14.83;100.00
13033;BME280;6583;42.632;23.298;2022-11-20T10:11:18;91840.94;;;14.94;100.00
13033;BME280;6583;42.632;23.298;2022-11-20T10:13:56;91826.69;;;14.90;100.00
13033;BME280;6583;42.632;23.298;2022-11-20T10:16:33;91833.38;;;14.96;100.00
13033;BME280;6583;42.632;23.298;2022-11-20T10:19:14;91844.41;;;14.94;100.00
13033;BME280;6583;42.632;23.298;2022-11-20T10:21:57;91842.06;;;14.93;100.00
13033;BME280;6583;42.632;23.298;2022-11-20T10:24:48;91815.66;;;15.03;100.00
13033;BME280;6583;42.632;23.298;2022-11-20T10:30:21;91826.72;;;15.14;100.00
13033;BME280;6583;42.632;23.298;2022-11-20T10:32:53;91824.38;;;15.13;100.00
13033;BME280;6583;42.632;23.298;2022-11-20T10:35:23;91819.81;;;15.13;100.00
13033;BME280;6583;42.632;23.298;2022-11-20T10:37:56;91829.72;;;15.13;100.00
13033;BME280;6583;42.632;23.298;2022-11-20T10:40:30;91840.75;;;15.23;100.00
13033;BME280;6583;42.632;23.298;2022-11-20T10:43:01;91847.19;;;15.22;100.00
13033;BME280;6583;42.632;23.298;2022-11-20T10:45:43;91866.13;;;15.17;100.00
13033;BME280;6583;42.632;23.298;2022-11-20T10:48:16;91842.06;;;15.17;100.00
13033;BME280;6583;42.632;23.298;2022-11-20T10:51:08;91848.75;;;15.23;100.00
13033;BME280;6583;42.632;23.298;2022-11-20T10:53:45;91867.34;;;15.32;100.00
13033;BME280;6583;42.632;23.298;2022-11-20T10:56:18;91859.34;;;15.32;100.00
13033;BME280;6583;42.632;23.298;2022-11-20T10:59:04;91873.47;;;15.33;100.00
13033;BME280;6583;42.632;23.298;2022-11-20T11:01:40;91860.56;;;15.35;100.00
13033;BME280;6583;42.632;23.298;2022-11-20T11:04:18;91887.28;;;15.22;100.00
13033;BME280;6583;42.632;23.298;2022-11-20T11:06:49;91909.56;;;15.27;100.00
13033;BME280;6583;42.632;23.298;2022-11-20T11:09:19;91952.09;;;14.86;100.00
13033;BME280;6583;42.632;23.298;2022-11-20T11:11:46;91920.44;;;14.97;100.00
13033;BME280;6583;42.632;23.298;2022-11-20T11:14:14;91923.41;;;14.83;100.00
13033;BME280;6583;42.632;23.298;2022-11-20T11:16:49;91909.63;;;14.60;100.00
13033;BME280;6583;42.632;23.298;2022-11-20T11:19:18;91938.16;;;14.47;100.00
13033;BME280;6583;42.632;23.298;2022-11-20T11:21:46;91947.13;;;14.00;100.00
13033;BME280;6583;42.632;23.298;2022-11-20T11:24:21;91898.41;;;13.31;100.00
13033;BME280;6583;42.632;23.298;2022-11-20T11:26:53;91880.59;;;13.14;100.00
13033;BME280;6583;42.632;23.298;2022-11-20T11:29:21;91922.09;;;12.77;100.00
13033;BME280;6583;42.632;23.298;2022-11-20T11:31:49;91908.00;;;12.68;100.00
13033;BME280;6583;42.632;23.298;2022-11-20T11:34:18;91894.09;;;12.53;100.00
13033;BME280;6583;42.632;23.298;2022-11-20T11:36:52;91910.56;;;12.38;100.00
13033;BME280;6583;42.632;23.298;2022-11-20T11:39:21;91924.50;;;12.17;100.00
13033;BME280;6583;42.632;23.298;2022-11-20T11:41:48;91915.44;;;11.92;100.00
13033;BME280;6583;42.632;23.298;2022-11-20T11:44:17;91942.19;;;11.96;100.00
13033;BME280;6583;42.632;23.298;2022-11-20T11:47:03;91896.94;;;11.78;100.00
13033;BME280;6583;42.632;23.298;2022-11-20T11:49:32;91928.34;;;11.76;100.00
13033;BME280;6583;42.632;23.298;2022-11-20T11:52:04;91900.22;;;11.84;100.00
13033;BME280;6583;42.632;23.298;2022-11-20T11:54:36;91896.66;;;11.97;100.00
13033;BME280;6583;42.632;23.298;2022-11-20T11:57:10;91890.53;;;12.06;100.00
13033;BME280;6583;42.632;23.298;2022-11-20T11:59:46;91876.91;;;11.90;100.00
13033;BME280;6583;42.632;23.298;2022-11-20T12:02:28;91874.75;;;12.00;100.00
13033;BME280;6583;42.632;23.298;2022-11-20T12:05:00;91891.28;;;11.89;100.00
13033;BME280;6583;42.632;23.298;2022-11-20T12:07:38;91865.22;;;11.99;100.00
13033;BME280;6583;42.632;23.298;2022-11-20T12:10:15;91883.19;;;11.94;100.00
13033;BME280;6583;42.632;23.298;2022-11-20T12:12:45;91904.66;;;11.97;100.00
13033;BME280;6583;42.632;23.298;2022-11-20T12:15:23;91911.34;;;11.95;100.00
13033;BME280;6583;42.632;23.298;2022-11-20T12:17:52;91894.47;;;11.99;100.00
13033;BME280;6583;42.632;23.298;2022-11-20T12:20:22;91895.41;;;11.95;100.00
13033;BME280;6583;42.632;23.298;2022-11-20T12:22:56;91901.34;;;11.92;100.00
13033;BME280;6583;42.632;23.298;2022-11-20T12:25:30;91888.97;;;11.78;100.00
13033;BME280;6583;42.632;23.298;2022-11-20T12:28:24;91899.41;;;11.75;100.00
13033;BME280;6583;42.632;23.298;2022-11-20T12:31:17;91906.59;;;11.57;100.00
13033;BME280;6583;42.632;23.298;2022-11-20T12:33:57;91887.22;;;11.56;100.00
13033;BME280;6583;42.632;23.298;2022-11-20T12:36:35;91850.94;;;11.69;100.00
13033;BME280;6583;42.632;23.298;2022-11-20T12:39:24;91815.63;;;11.77;100.00
13033;BME280;6583;42.632;23.298;2022-11-20T12:42:26;91785.13;;;11.83;100.00
13033;BME280;6583;42.632;23.298;2022-11-20T12:48:24;91737.91;;;11.98;100.00
13033;BME280;6583;42.632;23.298;2022-11-20T12:51:08;91736.78;;;12.08;100.00
13033;BME280;6583;42.632;23.298;2022-11-20T12:53:43;91745.19;;;12.27;100.00
13033;BME280;6583;42.632;23.298;2022-11-20T12:56:19;91724.16;;;12.43;100.00
13033;BME280;6583;42.632;23.298;2022-11-20T12:58:57;91721.41;;;12.60;100.00
13033;BME280;6583;42.632;23.298;2022-11-20T13:01:32;91713.31;;;12.78;100.00
13033;BME280;6583;42.632;23.298;2022-11-20T13:04:24;91721.34;;;12.99;100.00
13033;BME280;6583;42.632;23.298;2022-11-20T13:06:58;91764.22;;;13.06;100.00
13033;BME280;6583;42.632;23.298;2022-11-20T13:09:29;91779.44;;;13.06;100.00
13033;BME280;6583;42.632;23.298;2022-11-20T13:12:03;91797.78;;;13.28;100.00
13033;BME280;6583;42.632;23.298;2022-11-20T13:14:35;91792.25;;;13.12;100.00
13033;BME280;6583;42.632;23.298;2022-11-20T13:17:06;91817.53;;;12.97;100.00